Time;durP1;ratioP1;P1;durP2;ratioP2;P2;SDS_P1;SDS_P2;PMS_P1;PMS_P2;Temp;Humidity;BMP_temperature;BMP_pressure;BME280_temperature;BME280_humidity;BME280_pressure;Samples;Min_cycle;Max_cycle;Signal;HPM_P1;HPM_P2
2023/08/20 00:01:28;;;;;;;9.98;3.30;;;;;;;;;;5031283;28;20033;-70
2023/08/20 00:03:55;;;;;;;7.05;2.60;;;;;;;;;;5031500;28;20020;-70
2023/08/20 00:06:22;;;;;;;8.82;2.80;;;;;;;;;;5030859;28;20064;-70
2023/08/20 00:08:48;;;;;;;6.03;2.67;;;;;;;;;;5031429;28;20029;-70
2023/08/20 00:11:15;;;;;;;5.82;2.67;;;;;;;;;;5031417;28;20388;-70
2023/08/20 00:13:41;;;;;;;7.35;2.70;;;;;;;;;;5031540;28;20057;-70
2023/08/20 00:16:08;;;;;;;7.45;2.83;;;;;;;;;;5030714;28;20030;-70
2023/08/20 00:18:34;;;;;;;9.45;3.20;;;;;;;;;;5031075;28;20060;-70
2023/08/20 00:21:00;;;;;;;5.50;2.83;;;;;;;;;;5030840;28;20105;-70
2023/08/20 00:23:26;;;;;;;5.50;2.58;;;;;;;;;;5039352;28;20021;-70
2023/08/20 00:25:52;;;;;;;9.02;2.85;;;;;;;;;;5023968;28;20030;-70
2023/08/20 00:28:20;;;;;;;4.10;2.58;;;;;;;;;;5027464;28;20095;-70
2023/08/20 00:30:46;;;;;;;5.65;3.10;;;;;;;;;;5029583;28;20039;-69
2023/08/20 00:33:12;;;;;;;5.30;2.58;;;;;;;;;;5031084;28;20025;-70
2023/08/20 00:35:38;;;;;;;7.70;3.00;;;;;;;;;;5030903;28;20049;-70
2023/08/20 00:38:04;;;;;;;5.43;2.95;;;;;;;;;;5035327;28;20074;-71
2023/08/20 00:40:31;;;;;;;7.70;2.95;;;;;;;;;;5048614;28;20057;-68
2023/08/20 00:42:57;;;;;;;11.43;2.97;;;;;;;;;;5030935;28;20517;-70
2023/08/20 00:45:24;;;;;;;9.60;3.10;;;;;;;;;;5033429;28;20033;-69
2023/08/20 00:47:51;;;;;;;6.78;2.70;;;;;;;;;;5030235;28;20026;-69
2023/08/20 00:50:18;;;;;;;5.70;3.00;;;;;;;;;;5029280;28;20095;-69
2023/08/20 00:52:44;;;;;;;6.50;2.55;;;;;;;;;;5033252;28;20106;-69
2023/08/20 00:55:12;;;;;;;5.13;2.40;;;;;;;;;;5031457;28;20049;-68
2023/08/20 00:57:39;;;;;;;5.32;2.50;;;;;;;;;;5037090;28;20355;-69
2023/08/20 01:00:09;;;;;;;5.90;2.70;;;;;;;;;;5036122;28;20037;-69
2023/08/20 01:02:35;;;;;;;6.65;3.22;;;;;;;;;;5036519;28;20103;-69
2023/08/20 01:05:02;;;;;;;7.97;2.92;;;;;;;;;;5039537;28;20063;-69
2023/08/20 01:07:34;;;;;;;5.72;2.67;;;;;;;;;;5036215;28;20056;-69
2023/08/20 01:10:02;;;;;;;7.30;2.67;;;;;;;;;;5053679;28;20064;-69
2023/08/20 01:12:29;;;;;;;6.50;2.50;;;;;;;;;;5037432;28;20029;-70
2023/08/20 01:14:55;;;;;;;5.80;2.88;;;;;;;;;;5035084;28;20129;-69
2023/08/20 01:17:20;;;;;;;5.80;2.67;;;;;;;;;;5033168;28;20108;-70
2023/08/20 01:19:47;;;;;;;8.02;2.70;;;;;;;;;;5033587;28;20542;-70
2023/08/20 01:22:37;;;;;;;11.38;3.03;;;;;;;;;;5033465;28;20419;-70
2023/08/20 01:25:22;;;;;;;11.70;3.05;;;;;;;;;;5033070;28;20041;-70
2023/08/20 01:28:13;;;;;;;7.53;3.22;;;;;;;;;;5034320;28;20395;-69
2023/08/20 01:30:39;;;;;;;7.85;2.80;;;;;;;;;;5031662;28;20080;-70
2023/08/20 01:33:07;;;;;;;8.68;2.85;;;;;;;;;;5032977;28;20025;-70
2023/08/20 01:35:32;;;;;;;6.85;2.60;;;;;;;;;;5032594;28;20042;-70
2023/08/20 01:38:14;;;;;;;7.10;2.92;;;;;;;;;;5029026;28;20086;-70
2023/08/20 01:40:39;;;;;;;6.30;2.92;;;;;;;;;;5025050;28;20044;-70
2023/08/20 01:43:05;;;;;;;5.35;2.40;;;;;;;;;;5030425;28;20025;-70
2023/08/20 01:45:31;;;;;;;6.18;3.00;;;;;;;;;;5028407;28;20373;-70
2023/08/20 01:47:56;;;;;;;8.13;2.70;;;;;;;;;;5026960;28;20064;-70
2023/08/20 01:50:22;;;;;;;5.32;2.90;;;;;;;;;;5033089;28;20117;-69
2023/08/20 01:52:48;;;;;;;9.85;3.28;;;;;;;;;;5031420;28;20033;-70
2023/08/20 01:55:14;;;;;;;8.48;2.88;;;;;;;;;;5031193;28;20488;-70
2023/08/20 01:57:39;;;;;;;8.90;3.00;;;;;;;;;;5031308;28;20067;-69
2023/08/20 02:00:06;;;;;;;7.00;3.05;;;;;;;;;;5032168;28;20021;-70
2023/08/20 02:02:39;;;;;;;10.55;3.17;;;;;;;;;;5031853;28;20032;-69
2023/08/20 02:05:05;;;;;;;6.32;3.03;;;;;;;;;;5031882;28;20029;-70
2023/08/20 02:07:31;;;;;;;5.78;2.63;;;;;;;;;;5029979;28;20456;-70
2023/08/20 02:09:58;;;;;;;5.28;2.70;;;;;;;;;;5029297;28;20041;-70
2023/08/20 02:12:25;;;;;;;5.93;3.05;;;;;;;;;;5033051;28;20417;-69
2023/08/20 02:14:51;;;;;;;6.93;2.97;;;;;;;;;;5029672;28;20033;-70
2023/08/20 02:17:21;;;;;;;7.07;2.78;;;;;;;;;;5027308;28;20031;-71
2023/08/20 02:19:47;;;;;;;4.30;2.60;;;;;;;;;;5028049;28;20488;-70
2023/08/20 02:22:13;;;;;;;6.68;2.90;;;;;;;;;;5028868;28;20086;-70
2023/08/20 02:24:39;;;;;;;4.53;2.83;;;;;;;;;;5044333;28;20083;-70
2023/08/20 02:27:04;;;;;;;9.50;3.63;;;;;;;;;;5028810;28;20079;-70
2023/08/20 02:29:30;;;;;;;6.75;3.00;;;;;;;;;;5027699;28;20498;-70
2023/08/20 02:31:56;;;;;;;6.95;2.80;;;;;;;;;;5025612;28;20021;-70
2023/08/20 02:34:22;;;;;;;5.10;2.67;;;;;;;;;;5030380;28;20510;-70
2023/08/20 02:36:48;;;;;;;7.00;2.85;;;;;;;;;;5033817;28;20131;-70
2023/08/20 02:39:14;;;;;;;11.73;3.60;;;;;;;;;;5029647;28;20120;-70
2023/08/20 02:41:41;;;;;;;5.95;3.00;;;;;;;;;;5010387;28;20057;-70
2023/08/20 02:44:08;;;;;;;6.57;2.95;;;;;;;;;;5034159;28;20033;-70
2023/08/20 02:46:34;;;;;;;7.32;3.03;;;;;;;;;;5039546;28;20025;-70
2023/08/20 02:49:00;;;;;;;7.38;2.92;;;;;;;;;;5027341;28;20040;-70
2023/08/20 02:51:27;;;;;;;12.52;3.42;;;;;;;;;;5029038;28;20112;-70
2023/08/20 02:53:53;;;;;;;5.05;2.67;;;;;;;;;;5028090;28;20044;-70
2023/08/20 02:56:18;;;;;;;5.85;2.90;;;;;;;;;;5028211;28;20025;-70
2023/08/20 02:58:44;;;;;;;7.43;2.92;;;;;;;;;;5028158;28;20037;-70
2023/08/20 03:01:22;;;;;;;8.95;3.20;;;;;;;;;;5027152;28;20479;-70
2023/08/20 03:03:48;;;;;;;6.72;3.30;;;;;;;;;;5026757;28;20033;-70
2023/08/20 03:06:14;;;;;;;7.15;2.88;;;;;;;;;;5026394;28;20392;-70
2023/08/20 03:08:40;;;;;;;15.57;3.05;;;;;;;;;;5022983;28;20726;-69
2023/08/20 03:11:05;;;;;;;7.47;2.95;;;;;;;;;;5008182;28;20022;-70
2023/08/20 03:13:31;;;;;;;9.05;3.38;;;;;;;;;;5033289;28;20111;-70
2023/08/20 03:15:57;;;;;;;4.00;3.30;;;;;;;;;;5028636;28;20037;-70
2023/08/20 03:18:23;;;;;;;7.80;3.13;;;;;;;;;;5027172;28;20041;-70
2023/08/20 03:20:48;;;;;;;7.47;3.30;;;;;;;;;;5026935;28;20086;-70
2023/08/20 03:23:14;;;;;;;6.18;2.83;;;;;;;;;;5026681;28;20041;-70
2023/08/20 03:25:40;;;;;;;6.97;3.17;;;;;;;;;;5028473;28;20038;-70
2023/08/20 03:28:06;;;;;;;9.38;3.17;;;;;;;;;;5023512;28;20076;-70
2023/08/20 03:30:33;;;;;;;6.85;3.08;;;;;;;;;;5007001;28;20075;-70
2023/08/20 03:32:59;;;;;;;8.88;3.17;;;;;;;;;;5016026;28;20038;-70
2023/08/20 03:35:25;;;;;;;5.53;2.75;;;;;;;;;;5042880;28;20038;-71
2023/08/20 03:37:51;;;;;;;7.53;3.00;;;;;;;;;;5033011;28;20395;-71
2023/08/20 03:40:18;;;;;;;7.25;3.10;;;;;;;;;;5026930;28;20082;-71
2023/08/20 03:42:44;;;;;;;7.75;3.30;;;;;;;;;;5042936;28;20499;-70
2023/08/20 03:45:09;;;;;;;4.97;2.80;;;;;;;;;;5026675;28;20262;-70
2023/08/20 03:47:36;;;;;;;5.18;3.20;;;;;;;;;;5027602;28;20442;-70
2023/08/20 03:50:03;;;;;;;4.35;2.53;;;;;;;;;;5026900;28;20021;-70
2023/08/20 03:52:29;;;;;;;8.43;2.95;;;;;;;;;;5030564;28;20451;-70
2023/08/20 03:54:55;;;;;;;6.15;3.30;;;;;;;;;;5022949;28;20048;-70
2023/08/20 03:57:21;;;;;;;10.70;3.28;;;;;;;;;;5008763;28;20029;-71
2023/08/20 03:59:47;;;;;;;5.90;2.97;;;;;;;;;;5026380;28;20376;-71
2023/08/20 04:02:14;;;;;;;5.97;2.67;;;;;;;;;;5027405;28;20083;-71
2023/08/20 04:04:40;;;;;;;5.00;3.05;;;;;;;;;;5025591;28;20041;-72
2023/08/20 04:07:06;;;;;;;5.53;3.00;;;;;;;;;;5028763;28;20252;-71
2023/08/20 04:09:36;;;;;;;5.63;3.13;;;;;;;;;;5029459;28;20056;-71
2023/08/20 04:12:03;;;;;;;4.55;2.78;;;;;;;;;;5028937;28;20040;-70
2023/08/20 04:14:29;;;;;;;7.15;3.00;;;;;;;;;;5030845;28;20025;-71
2023/08/20 04:16:54;;;;;;;9.43;3.15;;;;;;;;;;5030630;28;20043;-71
2023/08/20 04:19:20;;;;;;;5.63;2.60;;;;;;;;;;5031908;28;20036;-71
2023/08/20 04:21:46;;;;;;;7.22;2.78;;;;;;;;;;5034155;28;20061;-70
2023/08/20 04:24:11;;;;;;;7.05;3.05;;;;;;;;;;5034251;28;20056;-71
2023/08/20 04:26:38;;;;;;;7.05;2.45;;;;;;;;;;5034035;28;20487;-71
2023/08/20 04:29:05;;;;;;;7.65;3.10;;;;;;;;;;5034232;28;20036;-71
2023/08/20 04:31:31;;;;;;;6.65;2.92;;;;;;;;;;5034128;28;20067;-71
2023/08/20 04:34:05;;;;;;;5.07;2.67;;;;;;;;;;5034015;28;20063;-71
2023/08/20 04:36:45;;;;;;;4.63;2.78;;;;;;;;;;5050428;28;20041;-71
2023/08/20 04:39:11;;;;;;;8.95;3.40;;;;;;;;;;5033980;28;20472;-71
2023/08/20 04:41:41;;;;;;;9.82;2.92;;;;;;;;;;5033929;28;20033;-71
2023/08/20 04:44:11;;;;;;;10.98;3.25;;;;;;;;;;5042091;28;20111;-71
2023/08/20 04:46:37;;;;;;;6.15;2.40;;;;;;;;;;5033979;28;20399;-71
2023/08/20 04:49:03;;;;;;;6.15;2.75;;;;;;;;;;5017121;28;20041;-70
2023/08/20 04:51:29;;;;;;;6.78;3.00;;;;;;;;;;5041898;28;20086;-71
2023/08/20 04:53:55;;;;;;;13.63;3.05;;;;;;;;;;5035488;28;20036;-71
2023/08/20 04:56:21;;;;;;;7.95;3.03;;;;;;;;;;5045072;28;20033;-71
2023/08/20 04:58:47;;;;;;;5.75;2.55;;;;;;;;;;5036096;28;20032;-71
2023/08/20 05:01:24;;;;;;;8.60;2.80;;;;;;;;;;5041754;28;20040;-71
2023/08/20 05:03:50;;;;;;;4.40;2.47;;;;;;;;;;5041203;28;20037;-71
2023/08/20 05:06:15;;;;;;;9.98;2.70;;;;;;;;;;5041407;28;20021;-71
2023/08/20 05:08:41;;;;;;;9.32;2.80;;;;;;;;;;5027046;28;20034;-71
2023/08/20 05:11:07;;;;;;;6.40;2.88;;;;;;;;;;5031922;28;20031;-71
2023/08/20 05:13:33;;;;;;;8.02;2.75;;;;;;;;;;5034470;28;20033;-71
2023/08/20 05:15:59;;;;;;;11.38;3.63;;;;;;;;;;5041243;28;20033;-71
2023/08/20 05:18:26;;;;;;;4.57;2.55;;;;;;;;;;5032971;28;20499;-71
2023/08/20 05:20:53;;;;;;;8.40;3.20;;;;;;;;;;5041344;28;20075;-71
2023/08/20 05:23:19;;;;;;;8.07;2.80;;;;;;;;;;5038171;28;20497;-71
2023/08/20 05:25:45;;;;;;;7.72;2.70;;;;;;;;;;5028720;28;20025;-71
2023/08/20 05:28:11;;;;;;;11.50;3.53;;;;;;;;;;5041422;28;20033;-71
2023/08/20 05:30:36;;;;;;;6.18;2.60;;;;;;;;;;5040658;28;20029;-71
2023/08/20 05:33:02;;;;;;;6.28;2.83;;;;;;;;;;5032754;28;20044;-70
2023/08/20 05:35:34;;;;;;;8.00;2.50;;;;;;;;;;5040673;28;20028;-70
2023/08/20 05:38:00;;;;;;;10.30;2.88;;;;;;;;;;5034042;28;20407;-71
2023/08/20 05:40:25;;;;;;;5.28;3.00;;;;;;;;;;5037622;28;20369;-71
2023/08/20 05:42:51;;;;;;;8.65;2.88;;;;;;;;;;5030881;28;20470;-71
2023/08/20 05:45:17;;;;;;;5.85;2.97;;;;;;;;;;5036328;28;20026;-70
2023/08/20 05:47:43;;;;;;;9.70;3.08;;;;;;;;;;5033644;28;20037;-71
2023/08/20 05:50:09;;;;;;;5.13;3.00;;;;;;;;;;5041849;28;20071;-70
2023/08/20 05:52:34;;;;;;;6.28;2.92;;;;;;;;;;5040783;28;20038;-71
2023/08/20 05:55:00;;;;;;;12.52;3.50;;;;;;;;;;5040566;28;20028;-70
2023/08/20 05:57:26;;;;;;;7.90;2.80;;;;;;;;;;5041656;28;20037;-70
2023/08/20 05:59:51;;;;;;;9.10;3.15;;;;;;;;;;5040520;28;20025;-70
2023/08/20 06:02:18;;;;;;;6.72;2.95;;;;;;;;;;5037066;28;20483;-71
2023/08/20 06:04:44;;;;;;;5.68;2.80;;;;;;;;;;5045546;28;20026;-71
2023/08/20 06:07:10;;;;;;;15.35;3.60;;;;;;;;;;5033178;28;20549;-71
2023/08/20 06:09:36;;;;;;;9.48;3.30;;;;;;;;;;5033325;28;20021;-71
2023/08/20 06:12:01;;;;;;;9.35;3.40;;;;;;;;;;5033014;28;20033;-71
2023/08/20 06:14:27;;;;;;;12.15;3.05;;;;;;;;;;5032924;28;20395;-71
2023/08/20 06:16:53;;;;;;;10.63;3.05;;;;;;;;;;5033757;28;20025;-71
2023/08/20 06:19:18;;;;;;;6.50;2.97;;;;;;;;;;5040238;28;20376;-71
2023/08/20 06:21:44;;;;;;;5.53;3.20;;;;;;;;;;5041014;28;20037;-69
2023/08/20 06:24:10;;;;;;;7.70;3.35;;;;;;;;;;5035876;28;20278;-70
2023/08/20 06:26:36;;;;;;;6.13;2.83;;;;;;;;;;5044519;28;20060;-70
2023/08/20 06:29:01;;;;;;;9.50;3.03;;;;;;;;;;5043211;28;20029;-71
2023/08/20 06:31:27;;;;;;;7.70;3.33;;;;;;;;;;5041679;28;20087;-72
2023/08/20 06:33:53;;;;;;;6.47;2.90;;;;;;;;;;5033432;28;20029;-71
2023/08/20 06:36:18;;;;;;;8.40;3.20;;;;;;;;;;5041338;28;20022;-71
2023/08/20 06:38:44;;;;;;;5.63;3.20;;;;;;;;;;5041338;28;20017;-71
2023/08/20 06:41:10;;;;;;;7.95;3.55;;;;;;;;;;5035667;28;20041;-70
2023/08/20 06:43:35;;;;;;;7.75;3.33;;;;;;;;;;5043727;28;20024;-69
2023/08/20 06:46:01;;;;;;;7.50;3.58;;;;;;;;;;5034401;28;20033;-71
2023/08/20 06:48:27;;;;;;;15.15;3.60;;;;;;;;;;5038374;28;20083;-71
2023/08/20 06:50:52;;;;;;;5.85;3.28;;;;;;;;;;5044226;28;20029;-70
2023/08/20 06:53:18;;;;;;;8.60;3.17;;;;;;;;;;5036714;28;20025;-70
2023/08/20 06:55:44;;;;;;;6.10;3.08;;;;;;;;;;5040404;28;20033;-71
2023/08/20 06:58:09;;;;;;;6.28;3.20;;;;;;;;;;5044380;28;20037;-71
2023/08/20 07:00:35;;;;;;;7.78;3.30;;;;;;;;;;5040775;28;20048;-71
2023/08/20 07:03:01;;;;;;;5.40;3.40;;;;;;;;;;5041595;28;20095;-69
2023/08/20 07:05:27;;;;;;;6.88;3.50;;;;;;;;;;5044286;28;20036;-70
2023/08/20 07:07:52;;;;;;;8.25;3.65;;;;;;;;;;5043589;28;20421;-71
2023/08/20 07:10:18;;;;;;;5.78;3.10;;;;;;;;;;5040312;28;20033;-70
2023/08/20 07:12:44;;;;;;;6.47;3.40;;;;;;;;;;5047715;28;20095;-70
2023/08/20 07:15:10;;;;;;;8.13;3.75;;;;;;;;;;5052134;28;20598;-69
2023/08/20 07:17:35;;;;;;;7.43;3.33;;;;;;;;;;5049447;28;20041;-71
2023/08/20 07:20:03;;;;;;;7.45;3.20;;;;;;;;;;5052395;28;20032;-70
2023/08/20 07:22:28;;;;;;;8.48;3.67;;;;;;;;;;5052113;28;20090;-70
2023/08/20 07:24:54;;;;;;;4.30;3.33;;;;;;;;;;5051909;28;20032;-70
2023/08/20 07:27:20;;;;;;;8.30;3.53;;;;;;;;;;5051741;28;20039;-69
2023/08/20 07:29:46;;;;;;;5.70;3.33;;;;;;;;;;5052313;28;20442;-70
2023/08/20 07:32:12;;;;;;;7.15;3.40;;;;;;;;;;5052414;28;20090;-71
2023/08/20 07:34:38;;;;;;;5.50;3.45;;;;;;;;;;5052124;28;20029;-71
2023/08/20 07:37:04;;;;;;;3.13;2.70;;;;;;;;;;5052087;28;20471;-72
2023/08/20 07:39:30;;;;;;;4.50;3.13;;;;;;;;;;5052399;28;20036;-71
2023/08/20 07:41:56;;;;;;;5.50;3.03;;;;;;;;;;5051994;28;20039;-71
2023/08/20 07:44:22;;;;;;;5.78;3.03;;;;;;;;;;5051969;28;20033;-70
2023/08/20 07:46:47;;;;;;;4.47;3.03;;;;;;;;;;5051862;28;20387;-71
2023/08/20 07:49:13;;;;;;;4.68;2.92;;;;;;;;;;5051783;28;20041;-71
2023/08/20 07:51:38;;;;;;;5.75;3.70;;;;;;;;;;5051727;28;20614;-70
2023/08/20 07:54:04;;;;;;;4.65;3.35;;;;;;;;;;5051301;28;20054;-71
2023/08/20 07:56:30;;;;;;;6.00;3.05;;;;;;;;;;5051330;28;20471;-71
2023/08/20 07:58:56;;;;;;;8.25;3.25;;;;;;;;;;5051690;28;20036;-71
2023/08/20 08:01:22;;;;;;;5.25;3.03;;;;;;;;;;5051790;28;20386;-71
2023/08/20 08:03:48;;;;;;;6.35;3.05;;;;;;;;;;5051505;28;20076;-71
2023/08/20 08:06:13;;;;;;;6.43;3.15;;;;;;;;;;5051482;28;20052;-71
2023/08/20 08:08:44;;;;;;;6.10;3.53;;;;;;;;;;5051685;28;20037;-71
2023/08/20 08:11:10;;;;;;;3.60;2.83;;;;;;;;;;5047760;28;20052;-71
2023/08/20 08:13:35;;;;;;;7.30;3.10;;;;;;;;;;5037141;28;20383;-71
2023/08/20 08:16:01;;;;;;;10.45;2.95;;;;;;;;;;5042005;28;20045;-70
2023/08/20 08:18:27;;;;;;;6.40;3.40;;;;;;;;;;5031496;28;20036;-71
2023/08/20 08:20:53;;;;;;;4.10;2.70;;;;;;;;;;5039703;28;20075;-70
2023/08/20 08:23:18;;;;;;;5.35;3.17;;;;;;;;;;5042556;28;20021;-71
2023/08/20 08:25:44;;;;;;;5.50;3.22;;;;;;;;;;5043060;28;20074;-71
2023/08/20 08:28:09;;;;;;;6.50;3.35;;;;;;;;;;5051306;28;20638;-71
2023/08/20 08:30:35;;;;;;;6.05;3.00;;;;;;;;;;5051341;28;20040;-70
2023/08/20 08:33:01;;;;;;;4.50;3.00;;;;;;;;;;5051597;28;20029;-70
2023/08/20 08:35:26;;;;;;;5.45;3.03;;;;;;;;;;5051161;28;20063;-70
2023/08/20 08:37:52;;;;;;;6.50;3.08;;;;;;;;;;5051361;28;20027;-70
2023/08/20 08:40:18;;;;;;;4.05;2.80;;;;;;;;;;5051337;28;20056;-71
2023/08/20 08:42:49;;;;;;;6.95;3.60;;;;;;;;;;5051181;28;20032;-71
2023/08/20 08:45:17;;;;;;;5.43;3.10;;;;;;;;;;5051350;28;20128;-70
2023/08/20 08:47:43;;;;;;;5.90;3.00;;;;;;;;;;5051282;28;20112;-71
2023/08/20 08:50:10;;;;;;;4.10;2.85;;;;;;;;;;5051109;28;20081;-70
2023/08/20 08:52:37;;;;;;;4.13;2.90;;;;;;;;;;5051009;28;20044;-70
2023/08/20 08:55:05;;;;;;;8.15;3.85;;;;;;;;;;5051319;28;20116;-70
2023/08/20 08:57:31;;;;;;;4.47;3.00;;;;;;;;;;5050220;28;20056;-70
2023/08/20 08:59:57;;;;;;;9.55;5.18;;;;;;;;;;5051275;28;20283;-70
2023/08/20 09:02:23;;;;;;;4.38;3.00;;;;;;;;;;5051037;28;20025;-70
2023/08/20 09:04:48;;;;;;;6.18;3.33;;;;;;;;;;5051020;28;20052;-69
2023/08/20 09:07:15;;;;;;;15.00;3.50;;;;;;;;;;5054610;28;20447;-70
2023/08/20 09:09:45;;;;;;;6.28;3.92;;;;;;;;;;5054274;28;20082;-70
2023/08/20 09:12:19;;;;;;;4.20;2.90;;;;;;;;;;5054413;28;20041;-70
2023/08/20 09:14:52;;;;;;;5.28;3.08;;;;;;;;;;5054602;28;20041;-70
2023/08/20 09:17:19;;;;;;;4.85;2.80;;;;;;;;;;5054218;28;20037;-70
2023/08/20 09:19:46;;;;;;;7.93;2.97;;;;;;;;;;5054330;28;20028;-70
2023/08/20 09:22:12;;;;;;;4.55;3.10;;;;;;;;;;5054166;28;20075;-70
2023/08/20 09:24:46;;;;;;;5.93;2.90;;;;;;;;;;5054459;28;20056;-70
2023/08/20 09:27:13;;;;;;;5.28;3.00;;;;;;;;;;5054434;28;20057;-70
2023/08/20 09:29:51;;;;;;;6.93;3.13;;;;;;;;;;5054110;28;20111;-70
2023/08/20 09:32:23;;;;;;;3.90;3.42;;;;;;;;;;5053969;28;20483;-71
2023/08/20 09:34:50;;;;;;;4.25;3.28;;;;;;;;;;5054866;28;20116;-70
2023/08/20 09:37:17;;;;;;;4.70;3.00;;;;;;;;;;5054137;28;20025;-70
2023/08/20 09:39:43;;;;;;;5.70;3.47;;;;;;;;;;5054372;28;20053;-71
2023/08/20 09:42:10;;;;;;;5.47;2.88;;;;;;;;;;5054207;28;20032;-72
2023/08/20 09:44:38;;;;;;;3.67;2.70;;;;;;;;;;5054193;28;20106;-71
2023/08/20 09:47:09;;;;;;;5.40;2.42;;;;;;;;;;5054033;28;20021;-70
2023/08/20 09:49:43;;;;;;;3.65;2.35;;;;;;;;;;5054097;28;20386;-70
2023/08/20 09:52:12;;;;;;;9.05;2.78;;;;;;;;;;5053862;28;20037;-70
2023/08/20 09:55:03;;;;;;;3.97;2.47;;;;;;;;;;5054095;28;20426;-70
2023/08/20 09:57:36;;;;;;;4.57;3.17;;;;;;;;;;5053595;28;20033;-70
2023/08/20 10:00:05;;;;;;;8.02;2.67;;;;;;;;;;5053940;28;20052;-71
2023/08/20 10:02:39;;;;;;;4.93;2.70;;;;;;;;;;5053629;28;20035;-71
2023/08/20 10:05:07;;;;;;;5.13;3.42;;;;;;;;;;5053933;28;20040;-71
2023/08/20 10:07:34;;;;;;;5.95;3.00;;;;;;;;;;5050103;28;20020;-71
2023/08/20 10:10:07;;;;;;;4.90;3.55;;;;;;;;;;5033492;28;20045;-71
2023/08/20 10:12:34;;;;;;;5.55;3.17;;;;;;;;;;5033546;28;20030;-71
2023/08/20 10:15:01;;;;;;;10.30;5.40;;;;;;;;;;5034152;28;20071;-71
2023/08/20 10:17:30;;;;;;;4.05;2.40;;;;;;;;;;5033502;28;20036;-70
2023/08/20 10:19:58;;;;;;;4.53;2.53;;;;;;;;;;5033394;28;20052;-71
2023/08/20 10:22:45;;;;;;;3.17;2.45;;;;;;;;;;5032434;28;20057;-71
2023/08/20 10:25:32;;;;;;;5.90;2.40;;;;;;;;;;5033168;28;20044;-70
2023/08/20 10:28:25;;;;;;;6.00;2.90;;;;;;;;;;5036889;28;20056;-71
2023/08/20 10:31:08;;;;;;;4.82;3.38;;;;;;;;;;5048403;28;20037;-71
2023/08/20 10:33:36;;;;;;;12.48;6.05;;;;;;;;;;5053186;28;20475;-71
2023/08/20 10:36:22;;;;;;;5.03;2.65;;;;;;;;;;5053010;28;20029;-72
2023/08/20 10:38:49;;;;;;;7.90;3.22;;;;;;;;;;5035361;28;20036;-70
2023/08/20 10:41:16;;;;;;;5.28;2.58;;;;;;;;;;5050706;28;20024;-70
2023/08/20 10:43:48;;;;;;;10.05;5.43;;;;;;;;;;5052860;28;20120;-71
2023/08/20 10:46:25;;;;;;;7.40;2.80;;;;;;;;;;5052884;28;20025;-71
2023/08/20 10:48:56;;;;;;;3.28;2.47;;;;;;;;;;5053165;28;20033;-72
2023/08/20 10:51:27;;;;;;;6.63;2.78;;;;;;;;;;5054097;28;20098;-72
2023/08/20 10:54:04;;;;;;;6.50;2.70;;;;;;;;;;5052892;28;20029;-72
2023/08/20 10:56:43;;;;;;;5.05;2.50;;;;;;;;;;5052845;28;20506;-72
2023/08/20 10:59:17;;;;;;;8.25;2.85;;;;;;;;;;5051551;28;20114;-71
2023/08/20 11:01:48;;;;;;;4.57;2.88;;;;;;;;;;5052632;28;20044;-71
2023/08/20 11:04:16;;;;;;;4.78;2.42;;;;;;;;;;5052735;28;20402;-71
2023/08/20 11:06:41;;;;;;;5.43;2.97;;;;;;;;;;5052498;28;20028;-71
2023/08/20 11:09:07;;;;;;;4.25;2.58;;;;;;;;;;5052062;28;20033;-72
2023/08/20 11:11:33;;;;;;;6.65;2.78;;;;;;;;;;5051177;28;20025;-72
2023/08/20 11:14:07;;;;;;;7.53;3.00;;;;;;;;;;5052337;28;20261;-71
2023/08/20 11:16:37;;;;;;;6.93;3.33;;;;;;;;;;5039093;28;20391;-71
2023/08/20 11:19:08;;;;;;;11.43;5.57;;;;;;;;;;5032465;28;20025;-72
2023/08/20 11:21:35;;;;;;;5.75;2.80;;;;;;;;;;5032142;28;20036;-71
2023/08/20 11:24:01;;;;;;;5.50;3.10;;;;;;;;;;5032372;28;20030;-72
2023/08/20 11:26:27;;;;;;;6.53;2.60;;;;;;;;;;5031099;28;20442;-72
2023/08/20 11:28:53;;;;;;;4.63;2.75;;;;;;;;;;5031728;28;20025;-72
2023/08/20 11:31:19;;;;;;;4.93;2.67;;;;;;;;;;5032233;28;20029;-71
2023/08/20 11:33:45;;;;;;;4.72;2.50;;;;;;;;;;5032777;28;20451;-71
2023/08/20 11:36:11;;;;;;;7.03;2.78;;;;;;;;;;5032215;28;20035;-72
2023/08/20 11:38:37;;;;;;;5.50;2.80;;;;;;;;;;5032009;28;20025;-71
2023/08/20 11:41:03;;;;;;;4.65;2.55;;;;;;;;;;5032035;28;20029;-71
2023/08/20 11:43:29;;;;;;;4.72;3.08;;;;;;;;;;5031946;28;20075;-71
2023/08/20 11:45:55;;;;;;;9.77;2.63;;;;;;;;;;5028639;28;20822;-72
2023/08/20 11:48:22;;;;;;;3.50;2.60;;;;;;;;;;5036267;28;20112;-71
2023/08/20 11:50:49;;;;;;;4.03;2.72;;;;;;;;;;5038721;28;20033;-71
2023/08/20 11:53:20;;;;;;;3.05;2.55;;;;;;;;;;5040082;28;20604;-71
2023/08/20 11:55:46;;;;;;;4.45;2.55;;;;;;;;;;5036782;28;20353;-72
2023/08/20 11:58:12;;;;;;;12.85;8.63;;;;;;;;;;5043278;28;20162;-72
2023/08/20 12:00:38;;;;;;;13.07;8.27;;;;;;;;;;5040236;28;20083;-72
2023/08/20 12:03:05;;;;;;;8.88;6.55;;;;;;;;;;5039544;28;20022;-72
2023/08/20 12:05:31;;;;;;;4.25;2.70;;;;;;;;;;5031882;28;20064;-72
2023/08/20 12:07:58;;;;;;;9.52;4.22;;;;;;;;;;5040473;28;20049;-72
2023/08/20 12:10:26;;;;;;;7.22;3.30;;;;;;;;;;5040063;28;20048;-71
2023/08/20 12:12:52;;;;;;;5.30;3.33;;;;;;;;;;5039725;28;20040;-72
2023/08/20 12:15:19;;;;;;;3.83;2.20;;;;;;;;;;5039995;28;20112;-72
2023/08/20 12:18:05;;;;;;;3.53;2.30;;;;;;;;;;5031527;28;20022;-71
2023/08/20 12:20:35;;;;;;;4.72;2.75;;;;;;;;;;5032002;28;20418;-71
2023/08/20 12:23:06;;;;;;;4.07;2.65;;;;;;;;;;5037946;28;20021;-72
2023/08/20 12:25:34;;;;;;;5.25;2.58;;;;;;;;;;5027650;28;20439;-72
2023/08/20 12:28:01;;;;;;;5.82;2.75;;;;;;;;;;5041913;28;20476;-71
2023/08/20 12:30:26;;;;;;;5.55;2.67;;;;;;;;;;5031586;28;20034;-71
2023/08/20 12:32:52;;;;;;;3.45;2.63;;;;;;;;;;5039336;28;20395;-72
2023/08/20 12:35:18;;;;;;;3.75;2.50;;;;;;;;;;5030025;28;20043;-72
2023/08/20 12:37:43;;;;;;;5.43;2.38;;;;;;;;;;5031015;28;20017;-71
2023/08/20 12:40:13;;;;;;;4.20;2.35;;;;;;;;;;5031817;28;20088;-72
2023/08/20 12:42:39;;;;;;;4.85;2.47;;;;;;;;;;5035275;28;20041;-71
2023/08/20 12:45:07;;;;;;;4.05;2.58;;;;;;;;;;5035233;28;20055;-72
2023/08/20 12:47:36;;;;;;;6.38;2.75;;;;;;;;;;5034972;28;20450;-71
2023/08/20 12:50:04;;;;;;;4.28;2.40;;;;;;;;;;5034149;28;20036;-71
2023/08/20 12:52:30;;;;;;;4.15;2.40;;;;;;;;;;5037026;28;20037;-71
2023/08/20 12:54:56;;;;;;;6.80;2.72;;;;;;;;;;5031727;28;20361;-71
2023/08/20 12:57:22;;;;;;;5.35;2.70;;;;;;;;;;5033777;28;20034;-71
2023/08/20 12:59:47;;;;;;;5.32;2.30;;;;;;;;;;5035060;28;20371;-71
2023/08/20 13:02:13;;;;;;;3.97;2.47;;;;;;;;;;5033560;28;20037;-71
2023/08/20 13:04:39;;;;;;;5.80;2.40;;;;;;;;;;5034468;28;20053;-71
2023/08/20 13:07:05;;;;;;;3.53;2.42;;;;;;;;;;5034119;28;20029;-72
2023/08/20 13:09:31;;;;;;;4.35;2.65;;;;;;;;;;5034788;28;20060;-71
2023/08/20 13:12:00;;;;;;;5.53;2.53;;;;;;;;;;5034854;28;20032;-71
2023/08/20 13:14:27;;;;;;;5.32;2.63;;;;;;;;;;5034521;28;20025;-72
2023/08/20 13:16:53;;;;;;;4.35;2.55;;;;;;;;;;5034130;28;20038;-71
2023/08/20 13:19:19;;;;;;;6.75;2.83;;;;;;;;;;5033296;28;20026;-72
2023/08/20 13:21:45;;;;;;;4.07;2.53;;;;;;;;;;5030370;28;20036;-72
2023/08/20 13:24:10;;;;;;;4.93;2.92;;;;;;;;;;5034394;28;20049;-72
2023/08/20 13:26:36;;;;;;;3.53;2.42;;;;;;;;;;5034529;28;20029;-71
2023/08/20 13:29:03;;;;;;;8.10;2.85;;;;;;;;;;5034775;28;20047;-72
2023/08/20 13:31:30;;;;;;;6.88;2.67;;;;;;;;;;5033166;28;20036;-72
2023/08/20 13:33:55;;;;;;;3.95;2.92;;;;;;;;;;5034405;28;20023;-72
2023/08/20 13:36:21;;;;;;;4.32;2.50;;;;;;;;;;5034212;28;20025;-72
2023/08/20 13:38:47;;;;;;;4.07;2.70;;;;;;;;;;5042321;28;20021;-72
2023/08/20 13:41:12;;;;;;;4.38;2.70;;;;;;;;;;5034209;28;20565;-72
2023/08/20 13:43:38;;;;;;;5.45;2.83;;;;;;;;;;5034365;28;20037;-72
2023/08/20 13:46:04;;;;;;;3.90;2.85;;;;;;;;;;5034194;28;20427;-71
2023/08/20 13:48:29;;;;;;;4.38;2.80;;;;;;;;;;5042286;28;20054;-71
2023/08/20 13:50:55;;;;;;;7.00;2.60;;;;;;;;;;5033056;28;20048;-72
2023/08/20 13:53:21;;;;;;;8.15;2.85;;;;;;;;;;5033982;28;20018;-71
2023/08/20 13:55:46;;;;;;;4.25;2.85;;;;;;;;;;5033939;28;20040;-71
2023/08/20 13:58:12;;;;;;;3.95;2.78;;;;;;;;;;5033918;28;20029;-71
2023/08/20 14:00:38;;;;;;;4.07;2.92;;;;;;;;;;5032428;28;20041;-71
2023/08/20 14:03:04;;;;;;;5.78;2.95;;;;;;;;;;5033745;28;20022;-71
2023/08/20 14:05:30;;;;;;;6.30;2.90;;;;;;;;;;5033053;28;20045;-71
2023/08/20 14:07:56;;;;;;;4.32;2.80;;;;;;;;;;5033810;28;20501;-72
2023/08/20 14:10:22;;;;;;;4.75;2.72;;;;;;;;;;5033605;28;20480;-71
2023/08/20 14:12:47;;;;;;;3.72;2.88;;;;;;;;;;5041956;28;20032;-72
2023/08/20 14:15:13;;;;;;;4.90;3.30;;;;;;;;;;5033791;28;20034;-72
2023/08/20 14:17:39;;;;;;;4.55;3.13;;;;;;;;;;5033413;28;20537;-72
2023/08/20 14:20:07;;;;;;;7.93;3.20;;;;;;;;;;5033369;28;20037;-72
2023/08/20 14:22:32;;;;;;;3.80;2.90;;;;;;;;;;5033285;28;20659;-72
2023/08/20 14:24:58;;;;;;;4.82;3.08;;;;;;;;;;5033314;28;20065;-72
2023/08/20 14:27:23;;;;;;;4.13;2.80;;;;;;;;;;5032958;28;20464;-72
2023/08/20 14:29:49;;;;;;;6.28;3.10;;;;;;;;;;5032034;28;20037;-72
2023/08/20 14:32:15;;;;;;;4.90;3.00;;;;;;;;;;5033126;28;20036;-73
2023/08/20 14:34:41;;;;;;;5.18;2.78;;;;;;;;;;5032864;28;20037;-72
2023/08/20 14:37:06;;;;;;;5.00;3.15;;;;;;;;;;5032987;28;20365;-74
2023/08/20 14:39:33;;;;;;;4.32;2.92;;;;;;;;;;5041483;28;20036;-73
2023/08/20 14:41:59;;;;;;;6.80;3.13;;;;;;;;;;5045342;28;20021;-72
2023/08/20 14:44:24;;;;;;;4.38;2.83;;;;;;;;;;5044032;28;20043;-73